Time;durP1;ratioP1;P1;durP2;ratioP2;P2;SDS_P1;SDS_P2;PMS_P1;PMS_P2;Temp;Humidity;BMP_temperature;BMP_pressure;BME280_temperature;BME280_humidity;BME280_pressure;Samples;Min_cycle;Max_cycle;Signal;HPM_P1;HPM_P2
2023/06/02 00:01:12;;;;;;;9.57;2.95;;;;;;;11.33;68.96;102275.84;6249451;22;20087;-80
2023/06/02 00:03:40;;;;;;;8.80;3.28;;;;;;;11.32;69.43;102278.91;6249300;22;20089;-81
2023/06/02 00:06:09;;;;;;;13.68;3.45;;;;;;;11.30;69.17;102276.66;6246722;22;20096;-81
2023/06/02 00:08:40;;;;;;;11.13;3.75;;;;;;;11.31;69.29;102278.16;6248650;22;20055;-81
2023/06/02 00:11:09;;;;;;;6.05;2.50;;;;;;;11.28;69.31;102273.63;6249384;22;20017;-80
2023/06/02 00:13:36;;;;;;;10.13;3.13;;;;;;;11.23;68.86;102274.09;6249238;22;20044;-81
2023/06/02 00:16:03;;;;;;;10.85;3.00;;;;;;;11.20;68.37;102263.50;6249567;22;20017;-80
2023/06/02 00:18:33;;;;;;;6.82;2.95;;;;;;;11.18;68.94;102263.19;6248832;22;20017;-80
2023/06/02 00:21:01;;;;;;;10.15;3.13;;;;;;;11.13;68.65;102266.31;6249655;22;20075;-80
2023/06/02 00:23:31;;;;;;;11.32;3.25;;;;;;;11.12;68.25;102264.78;6249024;22;20070;-80
2023/06/02 00:25:58;;;;;;;13.75;2.88;;;;;;;11.08;67.94;102264.84;6249684;22;20020;-80
2023/06/02 00:28:25;;;;;;;9.98;2.78;;;;;;;11.04;67.72;102258.81;6249279;22;20608;-80
2023/06/02 00:30:52;;;;;;;11.23;2.80;;;;;;;11.01;67.91;102251.63;6247484;22;20362;-81
2023/06/02 00:33:19;;;;;;;6.85;2.60;;;;;;;11.01;68.04;102252.38;6248606;22;20017;-80
2023/06/02 00:35:46;;;;;;;7.88;2.50;;;;;;;11.02;67.39;102261.88;6249193;22;20491;-80
2023/06/02 00:38:13;;;;;;;12.38;2.97;;;;;;;11.01;67.54;102254.31;6249140;22;20024;-80
2023/06/02 00:40:39;;;;;;;8.32;2.67;;;;;;;11.02;67.60;102253.13;6249289;22;20017;-81
2023/06/02 00:43:06;;;;;;;7.18;2.65;;;;;;;11.01;67.72;102260.38;6247386;22;20104;-80
2023/06/02 00:45:32;;;;;;;6.38;2.67;;;;;;;10.98;68.23;102261.19;6249218;22;20017;-80
2023/06/02 00:48:02;;;;;;;9.80;3.15;;;;;;;10.97;68.42;102264.25;6249410;22;20095;-80
2023/06/02 00:50:31;;;;;;;7.75;2.30;;;;;;;10.95;68.60;102255.91;6247448;22;20021;-80
2023/06/02 00:52:59;;;;;;;13.48;3.45;;;;;;;10.96;68.58;102257.41;6247658;22;20496;-80
2023/06/02 00:55:30;;;;;;;4.53;2.42;;;;;;;10.94;68.23;102257.81;6247330;22;20013;-79
2023/06/02 00:57:58;;;;;;;12.68;3.00;;;;;;;10.94;68.35;102257.81;6222293;22;20387;-78
2023/06/02 01:00:26;;;;;;;7.45;2.60;;;;;;;10.93;68.38;102256.31;6248325;22;20021;-79
2023/06/02 01:02:57;;;;;;;7.00;2.80;;;;;;;10.92;68.41;102254.81;6247207;22;20101;-79
2023/06/02 01:05:25;;;;;;;8.02;2.67;;;;;;;10.92;68.50;102262.06;6248966;22;20023;-79
2023/06/02 01:07:58;;;;;;;16.17;3.20;;;;;;;10.90;68.54;102265.13;6222144;22;20423;-79
2023/06/02 01:10:26;;;;;;;10.98;2.90;;;;;;;10.85;68.18;102256.81;6248858;22;20021;-79
2023/06/02 01:12:54;;;;;;;13.05;3.10;;;;;;;10.79;68.53;102261.88;6249333;22;20346;-80
2023/06/02 01:15:21;;;;;;;4.88;2.80;;;;;;;10.78;68.42;102259.63;6248833;22;20063;-79
2023/06/02 01:17:50;;;;;;;10.98;3.38;;;;;;;10.78;68.78;102259.63;6246425;22;20020;-79
2023/06/02 01:20:22;;;;;;;11.82;3.10;;;;;;;10.74;68.73;102261.59;6249401;22;20023;-79
2023/06/02 01:22:57;;;;;;;10.13;3.05;;;;;;;10.76;68.66;102267.25;6250203;22;20455;-79
2023/06/02 01:25:27;;;;;;;8.43;2.95;;;;;;;10.71;68.91;102265.81;6248030;22;20021;-79
2023/06/02 01:27:57;;;;;;;14.98;2.78;;;;;;;10.70;68.86;102266.97;6248283;22;20063;-78
2023/06/02 01:30:24;;;;;;;11.20;3.20;;;;;;;10.68;68.96;102266.59;6247685;22;20111;-79
2023/06/02 01:33:06;;;;;;;10.93;2.78;;;;;;;10.65;68.19;102268.16;6249911;22;20063;-79
2023/06/02 01:35:42;;;;;;;9.95;2.63;;;;;;;10.66;68.55;102264.34;6248236;22;20100;-78
2023/06/02 01:38:10;;;;;;;6.50;2.75;;;;;;;10.68;68.60;102269.28;6250057;22;20017;-79
2023/06/02 01:40:39;;;;;;;7.13;2.95;;;;;;;10.67;69.00;102268.53;6249831;22;20358;-80
2023/06/02 01:43:08;;;;;;;10.27;2.67;;;;;;;10.68;68.88;102261.28;6247836;22;20462;-79
2023/06/02 01:45:36;;;;;;;9.70;2.80;;;;;;;10.69;69.07;102268.13;6247615;22;20020;-78
2023/06/02 01:48:05;;;;;;;7.90;3.22;;;;;;;10.68;68.84;102271.94;6223081;22;20020;-79
2023/06/02 01:50:33;;;;;;;12.07;2.88;;;;;;;10.65;69.10;102272.75;6222476;22;20079;-79
2023/06/02 01:53:00;;;;;;;5.95;2.65;;;;;;;10.64;69.11;102268.56;6250058;22;20477;-79
2023/06/02 01:55:27;;;;;;;6.88;2.75;;;;;;;10.62;68.80;102258.31;6249359;22;20022;-78
2023/06/02 01:57:55;;;;;;;8.40;2.85;;;;;;;10.61;68.81;102259.47;6248610;22;20013;-78
2023/06/02 02:00:22;;;;;;;8.18;2.90;;;;;;;10.60;69.46;102257.97;6247051;22;20042;-79
2023/06/02 02:02:50;;;;;;;9.60;2.85;;;;;;;10.60;69.62;102260.63;6249867;22;20025;-79
2023/06/02 02:05:17;;;;;;;8.27;2.53;;;;;;;10.61;69.33;102264.03;6249757;22;20048;-79
2023/06/02 02:07:45;;;;;;;5.25;2.22;;;;;;;10.59;69.42;102266.34;6249687;22;20024;-79
2023/06/02 02:10:13;;;;;;;8.82;3.03;;;;;;;10.60;69.56;102265.19;6249593;22;20108;-79
2023/06/02 02:12:40;;;;;;;8.50;2.65;;;;;;;10.59;69.70;102261.03;6249773;22;20024;-78
2023/06/02 02:15:07;;;;;;;5.80;2.08;;;;;;;10.59;69.62;102261.78;6247172;22;20021;-79
2023/06/02 02:17:34;;;;;;;4.75;2.50;;;;;;;10.57;69.42;102266.75;6248012;22;20028;-79
2023/06/02 02:20:05;;;;;;;6.10;2.13;;;;;;;10.56;69.39;102264.50;6249941;22;20017;-79
2023/06/02 02:22:32;;;;;;;11.48;2.67;;;;;;;10.56;69.80;102261.81;6248055;22;20471;-79
2023/06/02 02:24:59;;;;;;;10.57;2.70;;;;;;;10.55;69.79;102262.97;6249909;22;20442;-79
2023/06/02 02:27:26;;;;;;;7.30;2.30;;;;;;;10.54;69.91;102256.91;6249381;22;20028;-78
2023/06/02 02:29:53;;;;;;;5.22;1.92;;;;;;;10.51;69.73;102260.38;6247328;22;20485;-78
2023/06/02 02:32:20;;;;;;;7.60;2.50;;;;;;;10.50;70.01;102258.88;6247356;22;20031;-79
2023/06/02 02:34:48;;;;;;;7.28;2.25;;;;;;;10.51;70.31;102262.28;6249732;22;20023;-79
2023/06/02 02:37:16;;;;;;;6.50;2.30;;;;;;;10.51;70.03;102263.03;6247444;22;20139;-78
2023/06/02 02:39:43;;;;;;;11.27;2.90;;;;;;;10.52;70.41;102264.53;6249248;22;20079;-79
2023/06/02 02:42:10;;;;;;;4.10;2.03;;;;;;;10.51;70.87;102267.59;6222539;22;20025;-78
2023/06/02 02:44:37;;;;;;;6.72;2.20;;;;;;;10.50;70.80;102261.53;6247022;22;20492;-79
2023/06/02 02:47:04;;;;;;;6.60;2.08;;;;;;;10.52;70.55;102261.13;6248127;22;20100;-79
2023/06/02 02:49:31;;;;;;;4.63;1.90;;;;;;;10.50;70.71;102264.19;6249555;22;20422;-80
2023/06/02 02:51:57;;;;;;;7.78;2.28;;;;;;;10.50;70.70;102261.53;6248416;22;20133;-80
2023/06/02 02:54:25;;;;;;;7.15;2.35;;;;;;;10.48;70.25;102255.84;6247799;22;20485;-80
2023/06/02 02:56:52;;;;;;;7.25;2.15;;;;;;;10.50;70.60;102253.53;6248164;22;20442;-80
2023/06/02 02:59:20;;;;;;;12.77;2.80;;;;;;;10.48;70.42;102258.50;6221650;22;20506;-80
2023/06/02 03:01:47;;;;;;;12.25;2.28;;;;;;;10.48;70.30;102260.41;6247847;22;20096;-80
2023/06/02 03:04:22;;;;;;;9.25;2.60;;;;;;;10.47;70.09;102253.59;6248080;22;20036;-80
2023/06/02 03:06:53;;;;;;;7.03;2.22;;;;;;;10.44;69.56;102265.03;6250143;22;20469;-80
2023/06/02 03:09:21;;;;;;;6.70;2.67;;;;;;;10.42;69.66;102259.34;6247760;22;20090;-80
2023/06/02 03:11:49;;;;;;;7.03;2.40;;;;;;;10.41;69.37;102268.50;6249471;22;20021;-80
2023/06/02 03:14:15;;;;;;;8.63;2.47;;;;;;;10.40;69.70;102267.75;6248968;22;20047;-80
2023/06/02 03:16:44;;;;;;;5.32;2.65;;;;;;;10.42;70.22;102264.69;6249853;22;20777;-80
2023/06/02 03:19:14;;;;;;;7.07;2.05;;;;;;;10.40;69.55;102269.69;6248032;22;20446;-80
2023/06/02 03:21:44;;;;;;;8.32;2.15;;;;;;;10.37;69.55;102262.50;6247522;22;20017;-81
2023/06/02 03:24:18;;;;;;;6.32;2.00;;;;;;;10.38;69.52;102261.34;6249556;22;20017;-80
2023/06/02 03:26:49;;;;;;;8.77;2.08;;;;;;;10.38;69.61;102266.66;6247766;22;20023;-80
2023/06/02 03:29:15;;;;;;;7.38;2.00;;;;;;;10.38;69.70;102261.34;6246664;22;20027;-80
2023/06/02 03:31:45;;;;;;;12.50;2.50;;;;;;;10.34;69.60;102262.13;6249760;22;20432;-80
2023/06/02 03:34:16;;;;;;;13.77;2.85;;;;;;;10.35;69.46;102270.88;6251722;22;20019;-80
2023/06/02 03:36:43;;;;;;;6.43;2.05;;;;;;;10.37;69.67;102265.16;6250949;22;20076;-80
2023/06/02 03:39:12;;;;;;;10.88;2.83;;;;;;;10.38;68.67;102266.66;6248948;22;20410;-80
2023/06/02 03:41:42;;;;;;;11.27;2.10;;;;;;;10.35;69.69;102266.31;6223832;22;20033;-80
2023/06/02 03:44:09;;;;;;;5.03;2.03;;;;;;;10.34;69.26;102267.47;6250678;22;20040;-80
2023/06/02 03:46:36;;;;;;;9.25;2.63;;;;;;;10.37;69.16;102270.47;6249118;22;20017;-80
2023/06/02 03:49:04;;;;;;;14.00;2.90;;;;;;;10.35;69.04;102268.97;6248292;22;20482;-80
2023/06/02 03:51:31;;;;;;;10.25;2.03;;;;;;;10.38;69.29;102266.66;6250080;22;20512;-80
2023/06/02 03:53:59;;;;;;;8.75;2.10;;;;;;;10.35;69.39;102271.63;6248582;22;20108;-81
2023/06/02 03:56:26;;;;;;;7.00;2.28;;;;;;;10.37;69.59;102265.91;6247866;22;20055;-81
2023/06/02 03:58:53;;;;;;;7.88;2.20;;;;;;;10.38;69.52;102267.41;6248928;22;20056;-80
2023/06/02 04:01:23;;;;;;;7.05;2.50;;;;;;;10.37;69.13;102273.13;6248397;22;20025;-80
2023/06/02 04:03:53;;;;;;;11.27;2.30;;;;;;;10.35;69.04;102268.22;6249087;22;20017;-80
2023/06/02 04:06:20;;;;;;;9.00;2.33;;;;;;;10.34;68.95;102270.13;6250355;22;20040;-80
2023/06/02 04:08:47;;;;;;;8.32;2.60;;;;;;;10.33;69.23;102265.94;6250417;22;20021;-80
2023/06/02 04:11:14;;;;;;;7.18;2.20;;;;;;;10.33;69.54;102265.19;6247736;22;20028;-79
2023/06/02 04:13:41;;;;;;;10.65;2.60;;;;;;;10.32;69.46;102263.69;6248812;22;20017;-78
2023/06/02 04:16:07;;;;;;;7.30;2.60;;;;;;;10.35;69.46;102270.88;6248043;22;20025;-81
2023/06/02 04:18:38;;;;;;;10.18;2.40;;;;;;;10.38;69.63;102275.41;6248158;22;20020;-80
2023/06/02 04:21:06;;;;;;;12.63;2.47;;;;;;;10.42;69.88;102278.00;6248293;22;20454;-79
2023/06/02 04:23:32;;;;;;;13.80;2.60;;;;;;;10.43;69.86;102269.59;6248018;22;20016;-80
2023/06/02 04:25:59;;;;;;;6.57;2.70;;;;;;;10.44;69.98;102281.75;6250424;22;20016;-80
2023/06/02 04:28:26;;;;;;;8.10;2.50;;;;;;;10.44;69.65;102284.41;6249283;22;20055;-80
2023/06/02 04:30:54;;;;;;;10.55;2.00;;;;;;;10.45;69.73;102280.59;6248360;22;20052;-80
2023/06/02 04:33:23;;;;;;;7.10;2.55;;;;;;;10.46;69.95;102282.13;6250170;22;20013;-80
2023/06/02 04:35:50;;;;;;;11.15;2.47;;;;;;;10.49;69.86;102283.97;6222692;22;20395;-80
2023/06/02 04:38:18;;;;;;;14.30;3.00;;;;;;;10.51;69.82;102280.91;6246646;22;20017;-80
2023/06/02 04:40:45;;;;;;;7.75;2.05;;;;;;;10.51;70.00;102279.00;6246422;22;20460;-80
2023/06/02 04:43:13;;;;;;;5.53;2.13;;;;;;;10.50;69.76;102290.06;6246763;22;20024;-80
2023/06/02 04:45:43;;;;;;;12.60;2.50;;;;;;;10.52;69.23;102288.50;6246937;22;20016;-80
2023/06/02 04:48:12;;;;;;;14.35;2.80;;;;;;;10.51;69.22;102288.91;6247355;22;20482;-80
2023/06/02 04:50:40;;;;;;;8.68;2.28;;;;;;;10.54;69.26;102285.44;6248760;22;20020;-80
2023/06/02 04:53:07;;;;;;;11.35;2.15;;;;;;;10.53;68.86;102287.34;6246898;22;20111;-80
2023/06/02 04:55:34;;;;;;;10.85;2.22;;;;;;;10.59;69.56;102277.75;6245951;22;20460;-81
2023/06/02 04:58:01;;;;;;;5.47;2.03;;;;;;;10.64;69.51;102285.31;6247096;22;20016;-80
2023/06/02 05:00:28;;;;;;;10.63;2.05;;;;;;;10.65;69.22;102278.06;6246817;22;20466;-80
2023/06/02 05:02:56;;;;;;;17.80;2.60;;;;;;;10.65;70.07;102280.72;6222364;22;20067;-80
2023/06/02 05:05:26;;;;;;;15.75;2.55;;;;;;;10.69;68.87;102282.19;6246632;22;20239;-80
2023/06/02 05:07:52;;;;;;;9.43;2.08;;;;;;;10.72;68.67;102285.19;6247385;22;20415;-80
2023/06/02 05:10:21;;;;;;;5.00;1.98;;;;;;;10.72;68.64;102285.19;6246227;22;20031;-81
2023/06/02 05:12:49;;;;;;;9.93;2.35;;;;;;;10.76;68.66;102285.91;6246710;22;20016;-80
2023/06/02 05:15:16;;;;;;;12.02;2.33;;;;;;;10.77;68.28;102285.50;6248312;22;20021;-80
2023/06/02 05:17:43;;;;;;;6.18;1.92;;;;;;;10.78;67.68;102288.94;6248755;22;20017;-80
2023/06/02 05:20:13;;;;;;;13.73;2.42;;;;;;;10.81;67.96;102285.44;6246712;22;20071;-80
2023/06/02 05:22:40;;;;;;;12.45;2.08;;;;;;;10.82;67.85;102293.03;6221620;22;20017;-80
2023/06/02 05:25:09;;;;;;;7.40;1.88;;;;;;;10.84;67.37;102293.38;6221389;22;20450;-80
2023/06/02 05:27:38;;;;;;;9.38;2.38;;;;;;;10.85;67.95;102286.88;6221786;22;20017;-80
2023/06/02 05:30:07;;;;;;;8.25;1.70;;;;;;;10.90;67.36;102296.34;6246594;22;20028;-80
2023/06/02 05:32:33;;;;;;;11.00;2.95;;;;;;;10.93;67.76;102290.19;6221398;22;20414;-80
2023/06/02 05:35:03;;;;;;;13.73;2.42;;;;;;;10.97;67.33;102291.66;6247132;22;20095;-80
2023/06/02 05:37:29;;;;;;;7.15;2.05;;;;;;;11.05;67.16;102299.53;6247567;22;20045;-80
2023/06/02 05:39:57;;;;;;;5.20;1.92;;;;;;;11.06;67.16;102296.47;6246736;22;20025;-80
2023/06/02 05:42:25;;;;;;;12.00;3.17;;;;;;;11.10;66.98;102291.09;6247606;22;20076;-80
2023/06/02 05:44:52;;;;;;;13.52;2.45;;;;;;;11.10;66.86;102294.50;6221940;22;20020;-80
2023/06/02 05:47:19;;;;;;;11.02;2.20;;;;;;;11.15;66.86;102290.63;6246322;22;20055;-80
2023/06/02 05:49:47;;;;;;;10.45;2.20;;;;;;;11.16;66.49;102300.13;6248331;22;20442;-80
2023/06/02 05:52:13;;;;;;;4.38;2.00;;;;;;;11.15;65.67;102302.06;6246106;22;20075;-80
2023/06/02 05:54:40;;;;;;;14.52;2.70;;;;;;;11.19;65.41;102299.34;6221046;22;20021;-80
2023/06/02 05:57:07;;;;;;;9.48;2.45;;;;;;;11.23;64.25;102300.75;6246733;22;20009;-80
2023/06/02 05:59:34;;;;;;;8.15;2.33;;;;;;;11.27;65.37;102303.38;6246207;22;20029;-80
2023/06/02 06:02:02;;;;;;;12.43;2.42;;;;;;;11.30;64.41;102300.66;6221825;22;20577;-80
2023/06/02 06:04:29;;;;;;;13.27;2.53;;;;;;;11.31;64.12;102301.41;6246378;22;20013;-80
2023/06/02 06:06:56;;;;;;;10.52;2.30;;;;;;;11.32;64.61;102293.00;6222439;22;20079;-80
2023/06/02 06:09:23;;;;;;;11.77;2.17;;;;;;;11.37;64.80;102297.13;6247961;22;20056;-80
2023/06/02 06:11:49;;;;;;;11.90;2.70;;;;;;;11.41;64.75;102299.72;6248237;22;20021;-80
2023/06/02 06:14:16;;;;;;;13.98;2.53;;;;;;;11.48;64.88;102295.03;6248668;22;20483;-80
2023/06/02 06:16:43;;;;;;;8.60;2.30;;;;;;;11.55;64.28;102300.25;6248630;22;20049;-80
2023/06/02 06:19:11;;;;;;;12.38;2.53;;;;;;;11.54;63.28;102301.41;6248206;22;20103;-79
2023/06/02 06:21:38;;;;;;;12.15;2.28;;;;;;;11.56;63.09;102295.66;6247493;22;20240;-80
2023/06/02 06:24:06;;;;;;;14.48;2.50;;;;;;;11.61;63.48;102300.50;6246998;22;20103;-80
2023/06/02 06:26:34;;;;;;;13.75;2.53;;;;;;;11.64;62.92;102305.78;6247442;22;20024;-80
2023/06/02 06:29:03;;;;;;;10.32;2.85;;;;;;;11.68;63.08;102298.47;6247669;22;20020;-81
2023/06/02 06:31:32;;;;;;;7.93;2.45;;;;;;;11.74;63.01;102306.00;6248274;22;20095;-79
2023/06/02 06:33:59;;;;;;;9.35;1.95;;;;;;;11.80;62.88;102299.03;6248818;22;20469;-78
2023/06/02 06:36:26;;;;;;;12.52;2.40;;;;;;;11.88;63.21;102300.44;6249648;22;20494;-77
2023/06/02 06:38:53;;;;;;;8.70;2.40;;;;;;;11.90;62.65;102304.19;6248830;22;20021;-78
2023/06/02 06:41:21;;;;;;;6.18;2.22;;;;;;;11.92;62.24;102309.13;6250343;22;20044;-79
2023/06/02 06:43:48;;;;;;;9.88;2.83;;;;;;;11.91;62.84;102308.38;6248728;22;20443;-81
2023/06/02 06:46:16;;;;;;;8.98;2.50;;;;;;;11.92;62.42;102309.13;6248131;22;20021;-82
2023/06/02 06:48:43;;;;;;;9.27;1.92;;;;;;;11.99;63.40;102311.66;6248685;22;20029;-82
2023/06/02 06:51:10;;;;;;;12.77;2.92;;;;;;;12.05;62.42;102317.25;6249468;22;20075;-81
2023/06/02 06:53:36;;;;;;;15.60;2.83;;;;;;;12.08;62.14;102311.84;6250599;22;20135;-80
2023/06/02 06:56:03;;;;;;;6.38;2.20;;;;;;;12.14;62.64;102312.88;6250558;22;20028;-81
2023/06/02 06:58:30;;;;;;;9.27;2.72;;;;;;;12.24;62.49;102311.91;6249902;22;20023;-81
2023/06/02 07:00:57;;;;;;;4.72;1.90;;;;;;;12.32;61.38;102317.84;6250761;22;20047;-81
2023/06/02 07:03:24;;;;;;;9.85;2.95;;;;;;;12.36;61.41;102318.53;6250397;22;20441;-80
2023/06/02 07:05:50;;;;;;;10.85;2.40;;;;;;;12.38;61.65;102318.88;6248237;22;20072;-78
2023/06/02 07:08:17;;;;;;;4.25;2.42;;;;;;;12.38;60.99;102318.13;6249895;22;20443;-79
2023/06/02 07:10:44;;;;;;;7.70;2.38;;;;;;;12.42;61.98;102324.88;6250201;22;20091;-80
2023/06/02 07:13:11;;;;;;;11.48;2.78;;;;;;;12.45;62.04;102325.97;6249859;22;20019;-80
2023/06/02 07:15:37;;;;;;;12.15;2.50;;;;;;;12.45;62.23;102318.72;6250294;22;20032;-80
2023/06/02 07:18:04;;;;;;;10.68;2.22;;;;;;;12.49;63.05;102329.31;6250054;22;20467;-78
2023/06/02 07:20:31;;;;;;;14.57;2.47;;;;;;;12.51;62.55;102327.00;6250130;22;20013;-78
2023/06/02 07:22:57;;;;;;;5.55;2.40;;;;;;;12.52;62.79;102328.50;6250404;22;20012;-78
2023/06/02 07:25:24;;;;;;;10.40;2.50;;;;;;;12.47;62.81;102323.63;6250046;22;20467;-79
2023/06/02 07:27:50;;;;;;;11.27;2.88;;;;;;;12.49;63.06;102323.97;6250223;22;20443;-79
2023/06/02 07:30:17;;;;;;;8.80;2.25;;;;;;;12.52;63.43;102334.59;6250235;22;20023;-80
2023/06/02 07:32:44;;;;;;;7.63;2.40;;;;;;;12.56;63.28;102329.94;6250530;22;20012;-81
2023/06/02 07:35:10;;;;;;;6.32;2.25;;;;;;;12.59;63.35;102329.09;6249477;22;20016;-80
2023/06/02 07:37:37;;;;;;;5.35;2.30;;;;;;;12.49;63.29;102326.66;6250354;22;20021;-80
2023/06/02 07:40:05;;;;;;;9.35;2.40;;;;;;;12.59;63.50;102331.78;6250327;22;20013;-79
2023/06/02 07:42:31;;;;;;;9.23;2.70;;;;;;;12.67;63.50;102338.47;6250231;22;20017;-80
2023/06/02 07:44:58;;;;;;;12.45;2.78;;;;;;;12.71;62.97;102341.06;6250194;22;20354;-80
2023/06/02 07:47:24;;;;;;;7.30;2.58;;;;;;;12.68;63.25;102329.28;6250005;22;20455;-79
2023/06/02 07:49:51;;;;;;;8.70;2.40;;;;;;;12.63;63.00;102329.03;6250121;22;20016;-79
2023/06/02 07:52:18;;;;;;;12.63;2.72;;;;;;;12.68;63.65;102339.22;6249901;22;20458;-79
2023/06/02 07:54:45;;;;;;;6.53;2.10;;;;;;;12.69;63.58;102332.72;6250172;22;20493;-79
2023/06/02 07:57:12;;;;;;;6.68;2.40;;;;;;;12.69;63.87;102338.06;6248223;22;20028;-80
2023/06/02 07:59:38;;;;;;;9.75;2.42;;;;;;;12.78;63.49;102338.25;6249789;22;20016;-79
2023/06/02 08:02:06;;;;;;;8.35;2.75;;;;;;;12.86;64.49;102328.88;6250109;22;20013;-80
2023/06/02 08:04:33;;;;;;;15.13;2.63;;;;;;;12.88;63.99;102334.56;6249959;22;20013;-79
2023/06/02 08:07:00;;;;;;;11.73;2.70;;;;;;;12.85;64.63;102329.28;6250295;22;20013;-80
2023/06/02 08:09:26;;;;;;;13.05;2.75;;;;;;;12.90;64.48;102328.81;6249951;22;20082;-80
2023/06/02 08:11:53;;;;;;;12.73;3.38;;;;;;;12.92;64.61;102335.22;6222973;22;20458;-79
2023/06/02 08:14:20;;;;;;;9.98;2.30;;;;;;;12.96;64.64;102333.22;6248094;22;20055;-80
2023/06/02 08:16:47;;;;;;;12.25;2.83;;;;;;;13.02;64.03;102328.91;6250418;22;20092;-80
2023/06/02 08:19:24;;;;;;;7.30;2.42;;;;;;;13.10;64.42;102332.16;6250739;22;20023;-80
2023/06/02 08:21:51;;;;;;;11.15;2.72;;;;;;;13.14;63.71;102330.16;6250275;22;20080;-79
2023/06/02 08:24:20;;;;;;;9.68;2.83;;;;;;;13.11;63.76;102335.59;6249783;22;20398;-80
2023/06/02 08:26:48;;;;;;;11.30;3.00;;;;;;;13.08;64.21;102331.81;6250188;22;20522;-79
2023/06/02 08:29:15;;;;;;;12.13;3.13;;;;;;;13.11;64.15;102333.66;6221908;22;20020;-79
2023/06/02 08:31:42;;;;;;;11.85;3.15;;;;;;;13.14;64.15;102326.72;6249610;22;20021;-77
2023/06/02 08:34:10;;;;;;;6.53;2.42;;;;;;;13.21;63.79;102326.56;6249951;22;20443;-79
2023/06/02 08:36:37;;;;;;;7.32;2.70;;;;;;;13.31;63.50;102322.88;6250410;22;20024;-79
2023/06/02 08:39:07;;;;;;;7.63;2.90;;;;;;;13.44;63.48;102331.00;6250116;22;20013;-79
2023/06/02 08:41:37;;;;;;;9.18;2.83;;;;;;;13.59;63.54;102330.22;6250040;22;20067;-78
2023/06/02 08:44:05;;;;;;;8.23;2.50;;;;;;;13.70;62.97;102329.91;6248297;22;20033;-78
2023/06/02 08:46:32;;;;;;;10.68;2.42;;;;;;;13.72;63.02;102329.50;6247786;22;20021;-78
2023/06/02 08:49:00;;;;;;;10.05;2.58;;;;;;;13.72;63.03;102327.56;6248162;22;20017;-78
2023/06/02 08:51:34;;;;;;;7.30;2.60;;;;;;;13.87;62.68;102328.72;6248593;22;20017;-78
2023/06/02 08:54:06;;;;;;;7.63;2.25;;;;;;;13.96;62.46;102312.03;6248120;22;20042;-76
2023/06/02 08:56:33;;;;;;;11.27;2.42;;;;;;;14.01;61.89;102325.63;6250023;22;20108;-78
2023/06/02 08:58:59;;;;;;;17.38;3.20;;;;;;;14.09;62.09;102315.47;6247877;22;20049;-78
2023/06/02 09:01:26;;;;;;;10.32;2.35;;;;;;;14.15;61.75;102323.75;6249092;22;20052;-78
2023/06/02 09:03:52;;;;;;;8.55;2.72;;;;;;;14.19;61.92;102327.06;6249915;22;20493;-79
2023/06/02 09:06:21;;;;;;;12.55;2.72;;;;;;;14.31;61.44;102331.69;6222619;22;20079;-79
2023/06/02 09:08:58;;;;;;;7.82;2.60;;;;;;;14.35;61.68;102333.09;6250255;22;20013;-79
2023/06/02 09:11:26;;;;;;;7.78;2.90;;;;;;;14.38;61.51;102328.06;6247960;22;20410;-78
2023/06/02 09:13:54;;;;;;;12.48;2.63;;;;;;;14.46;61.20;102324.75;6249873;22;20017;-78
2023/06/02 09:16:21;;;;;;;12.52;2.80;;;;;;;14.55;61.29;102338.28;6247506;22;20489;-78
2023/06/02 09:18:56;;;;;;;38.63;20.23;;;;;;;14.75;60.85;102321.25;6249757;22;20017;-78
2023/06/02 09:21:27;;;;;;;10.48;3.67;;;;;;;14.90;60.80;102327.66;6249493;22;20529;-78
2023/06/02 09:23:56;;;;;;;9.30;3.20;;;;;;;15.01;60.07;102326.16;6250069;22;20048;-77
2023/06/02 09:26:48;;;;;;;6.93;2.75;;;;;;;15.09;60.24;102332.03;6249664;22;20092;-78
2023/06/02 09:29:14;;;;;;;12.10;3.20;;;;;;;15.15;59.48;102334.94;6249680;22;20019;-78
2023/06/02 09:31:48;;;;;;;9.40;3.40;;;;;;;15.21;59.30;102335.84;6249423;22;20017;-78
2023/06/02 09:34:17;;;;;;;12.68;3.28;;;;;;;15.29;59.41;102332.50;6247963;22;20087;-78
2023/06/02 09:36:46;;;;;;;9.23;3.40;;;;;;;15.41;59.15;102330.22;6250016;22;20021;-78
2023/06/02 09:39:13;;;;;;;16.35;3.20;;;;;;;15.52;58.90;102334.06;6249517;22;20141;-78
2023/06/02 09:41:40;;;;;;;15.18;3.13;;;;;;;15.62;58.65;102338.34;6250707;22;20020;-78
2023/06/02 09:44:11;;;;;;;9.88;2.92;;;;;;;15.63;58.65;102333.72;6249973;22;20012;-78
2023/06/02 09:46:40;;;;;;;9.40;3.00;;;;;;;15.55;58.48;102335.88;6251182;22;20017;-78
2023/06/02 09:49:07;;;;;;;12.70;2.90;;;;;;;15.48;58.34;102332.69;6250587;22;20048;-78
2023/06/02 09:51:36;;;;;;;6.78;3.20;;;;;;;15.52;58.69;102342.13;6251000;22;20074;-78
2023/06/02 09:54:04;;;;;;;10.05;2.72;;;;;;;15.67;58.79;102328.97;6250810;22;20443;-78
2023/06/02 09:56:34;;;;;;;11.80;3.60;;;;;;;15.88;58.36;102333.63;6249306;22;20024;-79
2023/06/02 09:59:01;;;;;;;8.25;2.95;;;;;;;15.98;57.78;102332.50;6249802;22;20017;-79
2023/06/02 10:01:28;;;;;;;11.40;3.45;;;;;;;16.11;56.90;102329.72;6250495;22;20017;-79
2023/06/02 10:03:54;;;;;;;17.58;3.35;;;;;;;15.95;56.69;102328.00;6250477;22;20525;-79
2023/06/02 10:06:57;;;;;;;6.15;3.13;;;;;;;16.03;57.41;102317.72;6250487;22;20439;-77
2023/06/02 10:09:38;;;;;;;7.47;2.97;;;;;;;16.00;57.21;102318.59;6250652;22;20099;-79
2023/06/02 10:12:12;;;;;;;;;;;;;;;16.18;58.08;102318.72;6249616;22;20067;-80
2023/06/02 10:15:01;;;;;;;9.48;3.13;;;;;;;16.45;56.43;102322.69;6250574;22;20337;-76
2023/06/02 10:17:43;;;;;;;10.18;3.15;;;;;;;16.65;56.76;102323.88;6250543;22;20013;-78
2023/06/02 10:20:24;;;;;;;12.90;3.15;;;;;;;16.67;56.36;102321.50;6250760;22;20017;-77
2023/06/02 10:23:17;;;;;;;15.65;3.22;;;;;;;16.69;56.20;102329.13;6249106;22;20067;-77
2023/06/02 10:25:52;;;;;;;15.35;4.43;;;;;;;16.71;56.73;102318.66;6250822;22;20451;-77
2023/06/02 10:28:20;;;;;;;10.75;3.00;;;;;;;16.76;56.18;102328.84;6249973;22;20097;-78
2023/06/02 10:30:46;;;;;;;10.10;3.10;;;;;;;16.90;56.23;102322.13;6249189;22;20453;-79
2023/06/02 10:33:13;;;;;;;8.07;3.35;;;;;;;16.98;55.69;102323.34;6223530;22;20421;-78
2023/06/02 10:35:59;;;;;;;10.80;3.25;;;;;;;17.03;55.97;102322.03;6251047;22;20067;-76
2023/06/02 10:38:34;;;;;;;13.43;3.38;;;;;;;16.95;55.85;102322.28;6250669;22;20403;-76
2023/06/02 10:41:01;;;;;;;9.02;3.40;;;;;;;17.09;55.09;102317.53;6250994;22;20019;-76
2023/06/02 10:43:28;;;;;;;12.18;4.47;;;;;;;17.17;55.38;102319.50;6249951;22;20012;-75
2023/06/02 10:46:15;;;;;;;11.02;3.40;;;;;;;17.40;55.04;102317.41;6251028;22;20019;-76
2023/06/02 10:48:42;;;;;;;18.13;3.67;;;;;;;17.30;54.68;102314.72;6250916;22;20421;-77
2023/06/02 10:51:10;;;;;;;11.18;3.72;;;;;;;17.28;55.08;102319.78;6248605;22;20075;-79
2023/06/02 10:53:58;;;;;;;10.27;3.38;;;;;;;17.40;55.45;102323.53;6248443;22;20044;-79
2023/06/02 10:56:44;;;;;;;17.67;3.60;;;;;;;17.64;55.54;102316.34;6248160;22;20544;-79
2023/06/02 10:59:31;;;;;;;8.40;3.55;;;;;;;17.76;54.94;102320.09;6249980;22;20445;-79
2023/06/02 11:01:58;;;;;;;9.48;3.65;;;;;;;17.93;54.18;102323.22;6250731;22;20102;-79
2023/06/02 11:04:32;;;;;;;9.68;3.92;;;;;;;18.24;54.13;102312.22;6250319;22;20395;-80
2023/06/02 11:07:21;;;;;;;10.98;3.50;;;;;;;18.27;53.35;102320.13;6250885;22;20083;-79
2023/06/02 11:09:50;;;;;;;11.70;3.38;;;;;;;18.18;52.75;102324.81;6250865;22;20021;-79
2023/06/02 11:12:17;;;;;;;9.52;3.80;;;;;;;18.14;53.64;102318.81;6249477;22;20024;-77
2023/06/02 11:15:00;;;;;;;6.45;3.42;;;;;;;18.27;53.52;102314.00;6250706;22;20040;-77
2023/06/02 11:17:30;;;;;;;14.23;3.90;;;;;;;18.28;53.87;102318.94;6250364;22;20047;-77
2023/06/02 11:19:57;;;;;;;11.93;3.70;;;;;;;18.29;52.72;102325.81;6250792;22;20410;-77
2023/06/02 11:22:27;;;;;;;13.95;4.18;;;;;;;18.49;53.25;102319.13;6248452;22;20828;-77
2023/06/02 11:24:54;;;;;;;6.53;3.50;;;;;;;18.45;52.56;102318.56;6250614;22;20017;-77
2023/06/02 11:27:42;;;;;;;6.95;3.80;;;;;;;18.59;52.94;102318.66;6247644;22;20021;-77
2023/06/02 11:30:17;;;;;;;14.13;3.80;;;;;;;18.70;52.23;102312.78;6250233;22;20426;-77